Kedgwick, Canada
Current Conditions -  °F | °C
As of 5:53 PM on Monday 22 Dec 2014 (Local Time) from KFVE Reporting Station
Overcast Overcast  
Wind Chill: 13°   Ceiling: 2500
Heat Index: 21°   Visibility: 10mi
Dew Point: 19°   Wind: 6mph
Humidity: 92%   Direction: 140°SE
Pressure: 30.37"   Gusts: NA
Location:  47.63°N, 67.33°W
Report Text: KFVE 222153Z AUTO 14005KT 10SM OVC025 M06/M07 A3037 RMK AO2 SLP300 T10611072
Loading
Personal Weather Stations






























Interactive Weather Map New forecast layout! Learn more

10-Day Weather Forecast

Advertisements
Track Severe Weather on mobile